Time;durP1;ratioP1;P1;durP2;ratioP2;P2;SDS_P1;SDS_P2;PMS_P1;PMS_P2;Temp;Humidity;BMP_temperature;BMP_pressure;BME280_temperature;BME280_humidity;BME280_pressure;Samples;Min_cycle;Max_cycle;Signal;HPM_P1;HPM_P2
2022/08/15 00:01:25;;;;;;;1.20;0.60;;;15.80;70.00;;;;;;4991827;28;20838;-76
2022/08/15 00:03:55;;;;;;;2.15;0.70;;;15.80;69.50;;;;;;4991633;28;20417;-77
2022/08/15 00:06:36;;;;;;;1.50;0.40;;;15.80;70.80;;;;;;4991716;28;20396;-75
2022/08/15 00:09:07;;;;;;;1.60;0.50;;;15.80;68.50;;;;;;4991862;28;20392;-77
2022/08/15 00:11:39;;;;;;;1.35;0.57;;;15.80;68.00;;;;;;4991365;28;20399;-75
2022/08/15 00:14:14;;;;;;;2.20;0.57;;;15.70;67.30;;;;;;4979020;28;20389;-76
2022/08/15 00:16:43;;;;;;;1.73;0.50;;;15.80;69.20;;;;;;4991449;28;20440;-75
2022/08/15 00:19:19;;;;;;;1.65;0.60;;;16.00;68.60;;;;;;4991747;28;20923;-77
2022/08/15 00:21:49;;;;;;;1.67;0.55;;;16.20;67.60;;;;;;4991562;28;20426;-75
2022/08/15 00:24:20;;;;;;;1.13;0.52;;;16.30;67.20;;;;;;4991486;28;20707;-77
2022/08/15 00:26:49;;;;;;;2.47;0.60;;;16.30;66.30;;;;;;4991563;28;20400;-76
2022/08/15 00:29:19;;;;;;;2.20;0.70;;;16.30;65.60;;;;;;4973861;28;21230;-76
2022/08/15 00:31:47;;;;;;;1.35;0.57;;;16.40;66.60;;;;;;4991375;28;20373;-76
2022/08/15 00:34:17;;;;;;;0.40;0.30;;;16.50;65.40;;;;;;4991353;28;20389;-76
2022/08/15 00:36:48;;;;;;;3.10;0.70;;;16.40;64.00;;;;;;4991304;28;20915;-77
2022/08/15 00:39:17;;;;;;;0.80;0.47;;;16.40;66.00;;;;;;4991491;28;20459;-76
2022/08/15 00:41:46;;;;;;;8.10;0.88;;;16.50;64.80;;;;;;4973798;28;20710;-76
2022/08/15 00:44:27;;;;;;;2.90;0.57;;;16.60;64.80;;;;;;4991219;28;20388;-77
2022/08/15 00:46:58;;;;;;;2.17;0.80;;;16.70;64.60;;;;;;4991214;28;20760;-78
2022/08/15 00:49:28;;;;;;;1.13;0.80;;;16.80;65.30;;;;;;4991149;28;20429;-77
2022/08/15 00:52:04;;;;;;;1.17;0.50;;;16.80;64.70;;;;;;4991281;28;21213;-77
2022/08/15 00:54:31;;;;;;;1.75;0.60;;;16.80;64.20;;;;;;4990616;28;20357;-76
2022/08/15 00:57:05;;;;;;;3.28;0.52;;;16.80;64.60;;;;;;4991013;28;20389;-77
2022/08/15 00:59:39;;;;;;;1.20;0.43;;;16.90;63.60;;;;;;4991398;28;20369;-76
2022/08/15 01:02:09;;;;;;;2.30;0.60;;;16.90;63.80;;;;;;4991063;28;20381;-77
2022/08/15 01:04:37;;;;;;;0.40;0.40;;;17.00;65.00;;;;;;4991407;28;20503;-75
2022/08/15 01:07:05;;;;;;;1.70;0.43;;;16.80;61.70;;;;;;4991645;28;20401;-76
2022/08/15 01:09:35;;;;;;;0.93;0.60;;;16.90;63.00;;;;;;4991251;28;20377;-75
2022/08/15 01:12:08;;;;;;;1.00;0.50;;;17.00;62.50;;;;;;4987771;28;20387;-76
2022/08/15 01:14:37;;;;;;;2.35;0.70;;;16.90;62.40;;;;;;4983125;28;20407;-75
2022/08/15 01:17:06;;;;;;;1.83;0.60;;;16.80;61.30;;;;;;5006061;28;20377;-76
2022/08/15 01:20:35;;;;;;;0.73;0.50;;;16.70;61.00;;;;;;5010262;28;20379;-75
2022/08/15 01:23:05;;;;;;;1.50;0.60;;;16.60;62.40;;;;;;4923606;29;20462;-75
2022/08/15 01:25:38;;;;;;;0.68;0.40;;;16.70;62.40;;;;;;4930772;29;20395;-75
2022/08/15 01:28:10;;;;;;;1.83;0.50;;;17.00;62.10;;;;;;4930393;29;20411;-75
2022/08/15 01:30:47;;;;;;;1.23;0.50;;;17.20;61.90;;;;;;4915556;29;20399;-76
2022/08/15 01:33:16;;;;;;;1.00;0.45;;;17.10;61.80;;;;;;4912292;29;20463;-77
2022/08/15 01:35:46;;;;;;;1.38;0.40;;;17.10;62.20;;;;;;4911679;29;20384;-76
2022/08/15 01:38:23;;;;;;;1.63;0.50;;;17.80;61.80;;;;;;4911709;29;20427;-77
2022/08/15 01:41:20;;;;;;;1.77;0.55;;;18.00;61.00;;;;;;4911353;29;20740;-77
2022/08/15 01:43:58;;;;;;;1.60;0.55;;;18.10;60.60;;;;;;4912031;29;20387;-78
2022/08/15 01:46:32;;;;;;;1.35;0.40;;;18.20;61.20;;;;;;4899421;29;20818;-78
2022/08/15 01:49:07;;;;;;;1.65;0.40;;;18.10;59.00;;;;;;4911716;29;20399;-76
2022/08/15 01:51:34;;;;;;;0.90;0.40;;;18.30;59.60;;;;;;4911941;29;20388;-76
2022/08/15 01:54:12;;;;;;;0.40;0.40;;;18.70;58.70;;;;;;4959674;28;20873;-77
2022/08/15 01:56:45;;;;;;;0.53;0.40;;;19.00;57.50;;;;;;4978389;28;20508;-76
2022/08/15 01:59:16;;;;;;;0.80;0.38;;;19.00;56.40;;;;;;4990677;28;20380;-77
2022/08/15 02:01:43;;;;;;;0.93;0.50;;;18.70;56.40;;;;;;4990583;28;20864;-78
2022/08/15 02:04:13;;;;;;;0.77;0.40;;;18.90;56.40;;;;;;4990571;28;20412;-77
2022/08/15 02:06:41;;;;;;;0.82;0.45;;;19.10;57.70;;;;;;4993185;28;20448;-76
2022/08/15 02:09:18;;;;;;;0.75;0.50;;;19.00;55.20;;;;;;4994310;28;20445;-77
2022/08/15 02:11:47;;;;;;;1.10;0.50;;;19.50;54.60;;;;;;4992343;28;20384;-77
2022/08/15 02:14:14;;;;;;;0.93;0.47;;;19.30;54.30;;;;;;4982587;28;20412;-75
2022/08/15 02:16:42;;;;;;;0.98;0.45;;;19.10;54.60;;;;;;4993896;28;20377;-78
2022/08/15 02:19:13;;;;;;;1.20;0.45;;;19.00;54.40;;;;;;4993947;28;20426;-76
2022/08/15 02:21:44;;;;;;;0.43;0.40;;;19.10;55.00;;;;;;4993903;28;20384;-77
2022/08/15 02:24:18;;;;;;;1.40;0.38;;;18.90;54.40;;;;;;4980013;28;20413;-76
2022/08/15 02:26:46;;;;;;;0.73;0.40;;;18.40;55.30;;;;;;4993612;28;20492;-77
2022/08/15 02:29:14;;;;;;;0.75;0.38;;;18.00;55.30;;;;;;4993603;28;20958;-79
2022/08/15 02:31:42;;;;;;;0.82;0.50;;;17.90;57.20;;;;;;4993909;28;20385;-78
2022/08/15 02:34:10;;;;;;;1.08;0.50;;;17.90;56.60;;;;;;4993482;28;20420;-76
2022/08/15 02:36:39;;;;;;;1.02;0.40;;;17.80;56.90;;;;;;4993500;28;20392;-76
2022/08/15 02:39:09;;;;;;;0.68;0.40;;;17.70;56.90;;;;;;4993303;28;20369;-76
2022/08/15 02:41:40;;;;;;;0.80;0.30;;;17.70;57.60;;;;;;4993369;28;20420;-77
2022/08/15 02:44:10;;;;;;;1.50;0.40;;;17.70;57.50;;;;;;4993631;28;20429;-76
2022/08/15 02:46:38;;;;;;;0.88;0.40;;;17.70;57.90;;;;;;4993312;28;20411;-75
2022/08/15 02:49:10;;;;;;;1.48;0.50;;;17.60;58.10;;;;;;4993125;28;20800;-76
2022/08/15 02:51:42;;;;;;;1.10;0.60;;;17.60;58.20;;;;;;4993542;28;20775;-76
2022/08/15 02:54:11;;;;;;;1.38;0.50;;;17.60;58.00;;;;;;4993245;28;21069;-77
2022/08/15 02:56:39;;;;;;;0.77;0.45;;;17.50;57.80;;;;;;4993200;28;20380;-76
2022/08/15 02:59:10;;;;;;;2.38;0.60;;;17.50;58.30;;;;;;4993022;28;20457;-76
2022/08/15 03:01:40;;;;;;;0.80;0.43;;;17.30;58.40;;;;;;4992902;28;20376;-78
2022/08/15 03:04:20;;;;;;;0.47;0.40;;;17.30;58.00;;;;;;4992697;28;20460;-77
2022/08/15 03:06:48;;;;;;;0.60;0.30;;;17.20;58.80;;;;;;4992908;28;20463;-77
2022/08/15 03:09:16;;;;;;;1.13;0.40;;;17.20;58.70;;;;;;4992982;28;20416;-77
2022/08/15 03:11:44;;;;;;;1.35;0.50;;;17.50;59.30;;;;;;4991362;28;20372;-77
2022/08/15 03:14:15;;;;;;;1.00;0.40;;;17.60;58.70;;;;;;4980526;28;20413;-76
2022/08/15 03:16:46;;;;;;;2.40;0.52;;;17.60;58.90;;;;;;4992123;28;20381;-76
2022/08/15 03:19:18;;;;;;;1.25;0.55;;;17.60;58.30;;;;;;4992846;28;20381;-75
2022/08/15 03:21:48;;;;;;;1.50;0.60;;;17.60;58.50;;;;;;4992495;28;20444;-76
2022/08/15 03:24:19;;;;;;;1.67;0.68;;;17.90;58.30;;;;;;4992485;28;20484;-76
2022/08/15 03:26:46;;;;;;;1.40;0.60;;;18.70;58.10;;;;;;4992493;28;20412;-75
2022/08/15 03:29:19;;;;;;;2.67;0.70;;;19.20;56.00;;;;;;4992469;28;20468;-78
2022/08/15 03:31:50;;;;;;;2.60;0.60;;;18.80;57.10;;;;;;4992500;28;20737;-76
2022/08/15 03:34:19;;;;;;;5.88;0.70;;;18.60;56.70;;;;;;4992404;28;20397;-75
2022/08/15 03:36:46;;;;;;;2.08;0.50;;;18.30;57.50;;;;;;4992441;28;20384;-76
2022/08/15 03:39:15;;;;;;;1.35;0.60;;;18.00;58.30;;;;;;4992096;28;20391;-76
2022/08/15 03:41:43;;;;;;;0.88;0.30;;;18.20;58.90;;;;;;4992047;28;20439;-77
2022/08/15 03:44:12;;;;;;;1.60;0.40;;;18.30;57.80;;;;;;4992085;28;20381;-76
2022/08/15 03:46:39;;;;;;;0.60;0.40;;;18.00;57.60;;;;;;4992047;28;20764;-77
2022/08/15 03:49:07;;;;;;;0.70;0.40;;;17.90;59.00;;;;;;4992120;28;20377;-77
2022/08/15 03:51:34;;;;;;;1.20;0.57;;;17.60;59.50;;;;;;4992093;28;20388;-78
2022/08/15 03:54:02;;;;;;;2.35;0.50;;;17.20;61.10;;;;;;4992261;28;20393;-76
2022/08/15 03:56:31;;;;;;;1.80;0.63;;;17.30;61.60;;;;;;4991821;28;20381;-77
2022/08/15 03:59:00;;;;;;;2.70;0.50;;;17.80;61.00;;;;;;4991060;28;20476;-76
2022/08/15 04:01:33;;;;;;;1.05;0.50;;;18.00;60.10;;;;;;4991859;28;20426;-77
2022/08/15 04:04:00;;;;;;;2.40;0.70;;;18.00;59.70;;;;;;4990201;28;20420;-76
2022/08/15 04:06:31;;;;;;;1.75;0.40;;;17.50;61.10;;;;;;4991547;28;20408;-77
2022/08/15 04:08:59;;;;;;;1.00;0.50;;;17.30;61.80;;;;;;4992055;28;20384;-77
2022/08/15 04:11:30;;;;;;;0.90;0.30;;;17.20;61.50;;;;;;4991770;28;20382;-77
2022/08/15 04:13:58;;;;;;;0.60;0.40;;;17.50;62.00;;;;;;4978012;28;20396;-77
2022/08/15 04:16:26;;;;;;;0.52;0.40;;;17.50;62.40;;;;;;4991466;28;20894;-77
2022/08/15 04:18:53;;;;;;;1.08;0.57;;;17.70;62.20;;;;;;4991410;28;20396;-78
2022/08/15 04:21:21;;;;;;;0.80;0.40;;;17.40;62.50;;;;;;4991297;28;20392;-77
2022/08/15 04:23:49;;;;;;;1.15;0.40;;;17.30;62.90;;;;;;4991421;28;20737;-76
2022/08/15 04:26:18;;;;;;;1.10;0.50;;;17.20;63.40;;;;;;4991475;28;20436;-77
2022/08/15 04:28:45;;;;;;;0.82;0.50;;;17.30;63.60;;;;;;4990454;28;20388;-78
2022/08/15 04:31:22;;;;;;;0.98;0.50;;;17.30;63.40;;;;;;4991165;28;20551;-76
2022/08/15 04:33:49;;;;;;;1.20;0.47;;;17.40;64.20;;;;;;4991276;28;20385;-77
2022/08/15 04:36:19;;;;;;;1.02;0.43;;;17.50;63.80;;;;;;4991480;28;20943;-76
2022/08/15 04:38:49;;;;;;;2.20;0.60;;;17.50;64.50;;;;;;4991287;28;20388;-77
2022/08/15 04:41:17;;;;;;;1.25;0.50;;;17.60;63.80;;;;;;4991217;28;20493;-77
2022/08/15 04:43:44;;;;;;;1.20;0.70;;;17.50;64.20;;;;;;4990994;28;20852;-78
2022/08/15 04:46:11;;;;;;;0.80;0.30;;;17.50;64.30;;;;;;4973463;28;20417;-77
2022/08/15 04:48:42;;;;;;;0.50;0.40;;;17.40;64.20;;;;;;4990473;28;21494;-77
2022/08/15 04:51:09;;;;;;;0.70;0.45;;;17.60;64.90;;;;;;4990577;28;20430;-76
2022/08/15 04:53:38;;;;;;;1.50;0.40;;;18.20;63.10;;;;;;4990935;28;20459;-76
2022/08/15 04:56:07;;;;;;;0.70;0.40;;;18.00;62.60;;;;;;4990564;28;20381;-79
2022/08/15 04:58:34;;;;;;;0.43;0.40;;;17.80;64.30;;;;;;4991209;28;20852;-78
2022/08/15 05:01:09;;;;;;;0.93;0.30;;;17.50;64.10;;;;;;4990954;28;20440;-77
2022/08/15 05:03:37;;;;;;;0.98;0.60;;;17.10;63.90;;;;;;4991034;28;20741;-77
2022/08/15 05:06:07;;;;;;;1.52;0.50;;;16.80;64.90;;;;;;4990706;28;20408;-77
2022/08/15 05:08:37;;;;;;;1.30;0.60;;;16.60;65.00;;;;;;4991000;28;20730;-79
2022/08/15 05:11:11;;;;;;;2.10;0.70;;;16.40;65.30;;;;;;4991020;28;20412;-81
2022/08/15 05:13:40;;;;;;;1.65;0.68;;;16.40;66.60;;;;;;4974510;28;20407;-78
2022/08/15 05:16:08;;;;;;;1.23;0.50;;;16.30;66.80;;;;;;4990891;28;20793;-77
2022/08/15 05:18:40;;;;;;;1.60;0.60;;;16.30;66.80;;;;;;4990835;28;20926;-77
2022/08/15 05:21:12;;;;;;;3.10;0.60;;;16.30;67.80;;;;;;4990232;28;20400;-78
2022/08/15 05:23:42;;;;;;;0.63;0.50;;;16.30;67.10;;;;;;4991335;28;20420;-77
2022/08/15 05:26:12;;;;;;;1.48;0.70;;;16.20;68.20;;;;;;4990727;28;20918;-77
2022/08/15 05:28:39;;;;;;;0.50;0.40;;;16.20;68.60;;;;;;4990633;28;20396;-78
2022/08/15 05:31:08;;;;;;;1.05;0.32;;;16.20;68.50;;;;;;4991032;28;20737;-76
2022/08/15 05:33:37;;;;;;;0.38;0.30;;;16.10;68.70;;;;;;4990519;28;20384;-78
2022/08/15 05:36:06;;;;;;;4.50;2.50;;;16.10;67.80;;;;;;4990682;28;20391;-77
2022/08/15 05:38:40;;;;;;;1.50;1.00;;;15.90;68.10;;;;;;4990641;28;20388;-79
2022/08/15 05:41:33;;;;;;;1.70;1.50;;;15.90;68.60;;;;;;4993840;28;20385;-79
2022/08/15 05:44:16;;;;;;;16.38;9.70;;;15.80;69.00;;;;;;4994136;28;20451;-78
2022/08/15 05:46:59;;;;;;;2.47;0.82;;;15.80;68.70;;;;;;4994273;28;20408;-76
2022/08/15 05:49:56;;;;;;;1.15;0.20;;;15.60;69.00;;;;;;4994308;28;20370;-75
2022/08/15 05:52:35;;;;;;;0.93;0.30;;;15.50;69.60;;;;;;4993741;28;20380;-75
2022/08/15 05:55:14;;;;;;;6.05;1.80;;;15.40;69.50;;;;;;4993380;28;20732;-75
2022/08/15 05:58:05;;;;;;;1.90;1.30;;;15.30;70.90;;;;;;4985986;28;20405;-75
2022/08/15 06:00:34;;;;;;;1.30;1.20;;;15.20;70.20;;;;;;4988450;28;20417;-75
2022/08/15 06:03:18;;;;;;;1.98;0.60;;;15.30;71.60;;;;;;4987682;28;20383;-76
2022/08/15 06:05:51;;;;;;;2.40;0.50;;;15.20;71.30;;;;;;4989795;28;20411;-77
2022/08/15 06:08:23;;;;;;;1.10;0.50;;;15.10;72.00;;;;;;4994916;28;20403;-76
2022/08/15 06:11:02;;;;;;;1.80;0.60;;;15.00;72.80;;;;;;4989072;28;20478;-76
2022/08/15 06:13:38;;;;;;;1.25;0.70;;;14.90;72.50;;;;;;4979358;28;20406;-76
2022/08/15 06:16:18;;;;;;;0.70;0.40;;;14.80;72.90;;;;;;4993796;28;20438;-75
2022/08/15 06:18:46;;;;;;;0.90;0.30;;;14.90;73.20;;;;;;4975954;28;20415;-81
2022/08/15 06:21:37;;;;;;;1.05;0.43;;;14.80;73.50;;;;;;4993120;28;20399;-83
2022/08/15 06:24:17;;;;;;;0.60;0.40;;;14.70;74.00;;;;;;4993363;28;20479;-83
2022/08/15 06:27:03;;;;;;;0.40;0.38;;;14.70;73.50;;;;;;4993577;28;20444;-78
2022/08/15 06:29:53;;;;;;;1.00;0.40;;;14.60;73.60;;;;;;4993637;28;20392;-77
2022/08/15 06:32:20;;;;;;;0.57;0.40;;;14.60;74.00;;;;;;4993354;28;20377;-81
2022/08/15 06:35:03;;;;;;;0.82;0.50;;;14.50;74.40;;;;;;4993453;28;20372;-81
2022/08/15 06:37:42;;;;;;;1.20;0.50;;;14.40;75.10;;;;;;4993134;28;20854;-77
2022/08/15 06:40:36;;;;;;;0.40;0.40;;;14.30;75.40;;;;;;4993079;28;20385;-75
2022/08/15 06:43:07;;;;;;;0.77;0.40;;;14.30;76.00;;;;;;4975831;28;20405;-76
2022/08/15 06:45:43;;;;;;;2.00;0.50;;;14.30;76.40;;;;;;4993225;28;20911;-81
2022/08/15 06:48:14;;;;;;;1.10;0.25;;;14.30;76.80;;;;;;4981374;28;20448;-75
2022/08/15 06:50:47;;;;;;;1.08;0.30;;;14.30;77.10;;;;;;4992650;28;20396;-76
2022/08/15 06:53:20;;;;;;;0.30;0.30;;;14.20;77.00;;;;;;4993657;28;20912;-75
2022/08/15 06:55:57;;;;;;;0.63;0.40;;;14.30;78.00;;;;;;4993288;28;20741;-81
2022/08/15 06:58:37;;;;;;;0.60;0.30;;;14.20;77.70;;;;;;4993118;28;20488;-77
2022/08/15 07:01:19;;;;;;;0.30;0.30;;;14.20;78.40;;;;;;4984045;28;20472;-79
2022/08/15 07:03:59;;;;;;;0.90;0.30;;;14.10;78.80;;;;;;4980400;28;20506;-75
2022/08/15 07:06:40;;;;;;;0.40;0.30;;;14.10;79.50;;;;;;4989431;28;20409;-77
2022/08/15 07:09:23;;;;;;;0.60;0.37;;;14.10;80.00;;;;;;4982623;28;20431;-74
2022/08/15 07:11:58;;;;;;;0.40;0.40;;;14.00;80.60;;;;;;4967533;28;20381;-80
2022/08/15 07:14:32;;;;;;;0.75;0.30;;;14.00;81.10;;;;;;4992706;28;20765;-84
2022/08/15 07:17:15;;;;;;;1.23;0.40;;;13.90;81.90;;;;;;4976769;28;20393;-88
2022/08/15 07:19:42;;;;;;;0.90;0.30;;;13.90;82.70;;;;;;4990017;28;20971;-80
2022/08/15 07:22:11;;;;;;;0.32;0.30;;;13.80;83.10;;;;;;4993110;28;20472;-80
2022/08/15 07:24:49;;;;;;;0.77;0.40;;;13.80;83.90;;;;;;4993203;28;20385;-77
2022/08/15 07:27:18;;;;;;;0.68;0.30;;;13.70;84.40;;;;;;4998773;28;20423;-78
2022/08/15 07:29:48;;;;;;;1.60;0.40;;;13.60;85.00;;;;;;4994789;28;20422;-74
2022/08/15 07:32:43;;;;;;;0.60;0.50;;;13.60;85.90;;;;;;4991128;28;20415;-80
2022/08/15 07:35:13;;;;;;;1.30;0.50;;;13.60;86.70;;;;;;4988268;28;20439;-79
2022/08/15 07:37:58;;;;;;;1.20;0.50;;;13.60;87.60;;;;;;4989145;28;20934;-82
2022/08/15 07:40:32;;;;;;;0.40;0.40;;;13.60;88.00;;;;;;4988966;28;20377;-82
2022/08/15 07:43:03;;;;;;;0.60;0.40;;;13.60;88.40;;;;;;4987326;28;20891;-81
2022/08/15 07:45:39;;;;;;;0.50;0.40;;;13.60;88.80;;;;;;4994520;28;20899;-83
2022/08/15 07:48:25;;;;;;;0.70;0.50;;;13.50;89.40;;;;;;4996040;28;20417;-80
2022/08/15 07:51:14;;;;;;;0.85;0.55;;;13.50;90.00;;;;;;4972254;28;20389;-79
2022/08/15 07:54:00;;;;;;;0.70;0.60;;;13.40;90.30;;;;;;4993905;28;20408;-78
2022/08/15 07:56:30;;;;;;;0.77;0.63;;;13.50;90.50;;;;;;4993767;28;20385;-86
2022/08/15 07:59:18;;;;;;;0.60;0.60;;;13.50;90.60;;;;;;4992999;28;20388;-79
2022/08/15 08:01:47;;;;;;;1.05;0.70;;;13.40;91.00;;;;;;4989106;28;20877;-82
2022/08/15 08:04:23;;;;;;;1.02;0.50;;;13.40;91.00;;;;;;4992304;28;20401;-78
2022/08/15 08:07:31;;;;;;;1.25;0.80;;;13.40;91.10;;;;;;4993910;28;20409;-81
2022/08/15 08:10:33;;;;;;;0.80;0.80;;;13.40;91.40;;;;;;4992145;28;20411;-75
2022/08/15 08:13:09;;;;;;;0.77;0.70;;;13.30;91.60;;;;;;4988060;28;20472;-81
2022/08/15 08:15:50;;;;;;;0.80;0.50;;;13.30;91.60;;;;;;4992480;28;20478;-74
2022/08/15 08:18:44;;;;;;;2.30;0.90;;;13.30;91.60;;;;;;4994009;28;20380;-80
2022/08/15 08:21:18;;;;;;;0.63;0.63;;;13.30;91.80;;;;;;4983471;28;20408;-85
2022/08/15 08:23:49;;;;;;;0.77;0.70;;;13.30;92.00;;;;;;4993242;28;20404;-80
2022/08/15 08:26:32;;;;;;;0.85;0.70;;;13.20;92.20;;;;;;4993666;28;20404;-81
2022/08/15 08:29:40;;;;;;;0.50;0.50;;;13.20;92.40;;;;;;4993252;28;20393;-79
2022/08/15 08:32:28;;;;;;;0.75;0.68;;;13.20;92.60;;;;;;4993197;28;20384;-79
2022/08/15 08:35:10;;;;;;;1.60;0.70;;;13.20;92.90;;;;;;4992036;28;20388;-75
2022/08/15 08:37:48;;;;;;;0.93;0.70;;;13.20;92.60;;;;;;4975587;28;20411;-85
2022/08/15 08:43:23;;;;;;;1.00;0.65;;;13.10;93.20;;;;;;4981465;28;20392;-77
2022/08/15 08:46:21;;;;;;;1.05;0.60;;;13.10;93.50;;;;;;4993075;28;20393;-81
2022/08/15 08:49:14;;;;;;;1.35;0.70;;;13.10;93.50;;;;;;4985017;28;20918;-81
2022/08/15 08:52:05;;;;;;;0.98;0.68;;;13.10;93.70;;;;;;4914229;29;20490;-78
2022/08/15 08:54:40;;;;;;;1.02;0.80;;;13.00;93.70;;;;;;4913287;29;20399;-82
2022/08/15 08:57:16;;;;;;;1.05;0.80;;;13.00;94.10;;;;;;4915145;29;20767;-77
2022/08/15 09:00:06;;;;;;;1.05;0.70;;;13.00;94.20;;;;;;4912678;29;20403;-80
2022/08/15 09:02:46;;;;;;;0.70;0.60;;;13.00;94.10;;;;;;4922759;29;20732;-79
2022/08/15 09:05:30;;;;;;;0.60;0.60;;;13.00;93.90;;;;;;4899541;29;20903;-80
2022/08/15 09:08:10;;;;;;;0.82;0.55;;;13.00;93.80;;;;;;4921565;29;20418;-77
2022/08/15 09:10:38;;;;;;;0.60;0.60;;;13.00;93.70;;;;;;4915292;29;21014;-84
2022/08/15 09:16:36;;;;;;;1.05;0.50;;;13.00;93.60;;;;;;4918343;29;20455;-83
2022/08/15 09:19:12;;;;;;;0.63;0.60;;;13.00;93.60;;;;;;4896352;29;20968;-81
2022/08/15 09:21:41;;;;;;;1.00;0.70;;;12.90;93.60;;;;;;4909558;29;20779;-76
2022/08/15 09:24:08;;;;;;;1.17;0.77;;;12.90;93.40;;;;;;4917452;29;20539;-77
2022/08/15 09:27:04;;;;;;;0.80;0.70;;;13.00;93.20;;;;;;4916384;29;20411;-79
2022/08/15 09:29:38;;;;;;;1.50;0.70;;;12.90;93.40;;;;;;4899714;29;21418;-74
2022/08/15 09:32:17;;;;;;;0.73;0.70;;;12.90;93.60;;;;;;4916205;29;20872;-78
2022/08/15 09:35:00;;;;;;;0.70;0.70;;;12.80;94.10;;;;;;4914844;29;20462;-77
2022/08/15 09:37:40;;;;;;;1.25;0.80;;;12.70;94.50;;;;;;4911236;29;21049;-73
2022/08/15 09:40:29;;;;;;;2.00;0.80;;;12.70;94.90;;;;;;4914712;29;20883;-78
2022/08/15 09:43:36;;;;;;;0.90;0.87;;;12.60;95.10;;;;;;4905096;29;20395;-79
2022/08/15 09:46:24;;;;;;;2.40;1.25;;;12.60;95.50;;;;;;4840304;29;20437;-78
2022/08/15 09:49:19;;;;;;;1.53;1.20;;;12.50;95.90;;;;;;4840135;29;20410;-76
2022/08/15 09:51:57;;;;;;;2.65;1.60;;;12.50;96.40;;;;;;4838203;29;20907;-77
2022/08/15 09:54:28;;;;;;;3.13;1.70;;;12.40;96.70;;;;;;4839034;29;20886;-79
2022/08/15 09:57:22;;;;;;;2.13;1.60;;;12.40;97.00;;;;;;4839971;29;20493;-76
2022/08/15 10:00:17;;;;;;;2.08;1.88;;;12.30;97.40;;;;;;4832884;29;20463;-77
2022/08/15 10:02:47;;;;;;;3.25;2.20;;;12.30;97.80;;;;;;4840209;29;20428;-78
2022/08/15 10:05:23;;;;;;;4.80;3.33;;;12.10;98.10;;;;;;4843125;29;20883;-81
2022/08/15 10:08:15;;;;;;;3.27;2.60;;;12.00;98.70;;;;;;4910551;29;20433;-80
2022/08/15 10:10:54;;;;;;;3.03;2.15;;;11.90;99.10;;;;;;4912373;29;20395;-79
2022/08/15 10:13:28;;;;;;;2.08;1.60;;;11.80;99.70;;;;;;4916530;29;20407;-78
2022/08/15 10:15:56;;;;;;;1.48;1.38;;;11.80;99.90;;;;;;4915257;29;20386;-81
2022/08/15 10:18:25;;;;;;;1.57;1.30;;;11.70;99.90;;;;;;4914813;29;20415;-74
2022/08/15 10:21:17;;;;;;;2.00;1.50;;;11.70;99.90;;;;;;4915509;29;20405;-80
2022/08/15 10:23:49;;;;;;;1.73;1.50;;;11.70;99.90;;;;;;4985742;28;20396;-79
2022/08/15 10:26:22;;;;;;;2.30;1.70;;;11.70;99.90;;;;;;4993120;28;20388;-74
2022/08/15 10:29:08;;;;;;;2.60;1.60;;;11.70;99.90;;;;;;4994773;28;20392;-79
2022/08/15 10:31:58;;;;;;;3.42;1.60;;;11.60;99.90;;;;;;4994442;28;20381;-79
2022/08/15 10:34:50;;;;;;;1.60;1.50;;;11.60;99.90;;;;;;4992944;28;20385;-81
2022/08/15 10:37:29;;;;;;;1.40;1.30;;;11.50;99.90;;;;;;4993687;28;20431;-75
2022/08/15 10:40:20;;;;;;;2.13;1.23;;;11.50;99.90;;;;;;4992902;28;20416;-80
2022/08/15 10:43:07;;;;;;;1.45;1.10;;;11.40;99.90;;;;;;4981445;28;20385;-77
2022/08/15 10:45:53;;;;;;;1.90;1.00;;;11.40;99.90;;;;;;4989616;28;20428;-79
2022/08/15 10:49:02;;;;;;;2.03;1.30;;;11.40;99.90;;;;;;4990087;28;20472;-78
2022/08/15 10:51:47;;;;;;;4.67;1.30;;;11.30;99.90;;;;;;4990554;28;20421;-77
2022/08/15 10:54:42;;;;;;;2.90;1.40;;;11.30;99.90;;;;;;4992257;28;20401;-79
2022/08/15 10:57:10;;;;;;;3.00;1.60;;;11.10;99.90;;;;;;4992546;28;20888;-76
2022/08/15 10:59:48;;;;;;;2.15;1.70;;;11.00;99.90;;;;;;4992463;28;20393;-78
2022/08/15 11:02:44;;;;;;;2.00;1.50;;;10.90;99.90;;;;;;4991464;28;20397;-79
2022/08/15 11:05:16;;;;;;;1.90;1.30;;;10.90;99.90;;;;;;4982448;28;20397;-81
2022/08/15 11:07:49;;;;;;;2.00;1.30;;;11.00;99.90;;;;;;4991444;28;20413;-81
2022/08/15 11:10:19;;;;;;;1.88;1.30;;;11.10;99.90;;;;;;4973534;28;20388;-80
2022/08/15 11:12:50;;;;;;;1.45;1.30;;;11.20;99.90;;;;;;4985728;28;20386;-78
2022/08/15 11:15:54;;;;;;;1.87;1.30;;;11.20;99.90;;;;;;4992223;28;20473;-77
2022/08/15 11:18:34;;;;;;;2.10;1.35;;;11.20;99.90;;;;;;4951658;29;20438;-77
2022/08/15 11:21:36;;;;;;;1.73;1.35;;;11.20;99.90;;;;;;4952183;29;20399;-78
2022/08/15 11:24:09;;;;;;;1.50;1.10;;;11.40;99.90;;;;;;4955953;29;20403;-80
2022/08/15 11:26:43;;;;;;;1.77;1.30;;;11.40;99.90;;;;;;4956981;29;20411;-75
2022/08/15 11:29:17;;;;;;;2.22;1.20;;;11.50;99.90;;;;;;4956653;29;20520;-79
2022/08/15 11:32:05;;;;;;;2.45;1.17;;;11.50;99.90;;;;;;4956809;29;20380;-77
2022/08/15 11:34:39;;;;;;;1.83;1.30;;;11.50;99.90;;;;;;4954144;29;20935;-79
2022/08/15 11:37:12;;;;;;;2.95;1.20;;;11.60;99.90;;;;;;4951027;29;20396;-75
2022/08/15 11:39:54;;;;;;;3.05;1.40;;;11.60;99.90;;;;;;4968836;29;20479;-76
2022/08/15 11:42:23;;;;;;;2.20;1.30;;;11.60;99.90;;;;;;4969003;29;20396;-77
2022/08/15 11:45:01;;;;;;;1.10;1.00;;;11.60;99.90;;;;;;4969815;29;20408;-79
2022/08/15 11:47:33;;;;;;;2.22;1.20;;;11.60;99.90;;;;;;4970803;29;20455;-77
2022/08/15 11:50:06;;;;;;;3.50;1.45;;;11.60;99.90;;;;;;4970691;29;20643;-78
2022/08/15 11:52:46;;;;;;;1.95;1.20;;;11.60;99.90;;;;;;4958244;29;20392;-79
2022/08/15 11:55:15;;;;;;;1.70;1.30;;;11.50;99.90;;;;;;4992997;28;20744;-80
2022/08/15 11:57:51;;;;;;;1.85;1.20;;;11.40;99.90;;;;;;4992119;28;20880;-77
2022/08/15 12:00:27;;;;;;;1.42;1.20;;;11.40;99.90;;;;;;4991874;28;20428;-75
2022/08/15 12:02:55;;;;;;;1.48;1.10;;;11.50;99.90;;;;;;4990668;28;20427;-76
2022/08/15 12:05:50;;;;;;;1.58;1.20;;;11.50;99.90;;;;;;4991721;28;20447;-77
2022/08/15 12:08:33;;;;;;;1.80;1.35;;;11.40;99.90;;;;;;4989473;28;20456;-77
2022/08/15 12:11:17;;;;;;;1.63;1.47;;;11.30;99.90;;;;;;4992134;28;20373;-78
2022/08/15 12:13:59;;;;;;;1.77;1.50;;;11.30;99.90;;;;;;4977051;28;20401;-77
2022/08/15 12:16:39;;;;;;;2.25;1.40;;;11.30;99.90;;;;;;4991661;28;20884;-76
2022/08/15 12:19:39;;;;;;;1.60;1.25;;;11.20;99.90;;;;;;4991688;28;20462;-79
2022/08/15 12:22:14;;;;;;;1.60;1.25;;;11.20;99.90;;;;;;4991759;28;20388;-77
2022/08/15 12:24:44;;;;;;;1.20;1.08;;;11.20;99.90;;;;;;4991120;28;20419;-77
2022/08/15 12:27:12;;;;;;;1.17;1.00;;;11.20;99.90;;;;;;4991268;28;20418;-78
2022/08/15 12:29:40;;;;;;;1.50;1.20;;;11.20;99.90;;;;;;4991743;28;20400;-79
2022/08/15 12:32:12;;;;;;;1.55;1.05;;;11.20;99.90;;;;;;4991189;28;20472;-76
2022/08/15 12:34:43;;;;;;;1.70;1.20;;;11.10;99.90;;;;;;4991190;28;20420;-77
2022/08/15 12:37:14;;;;;;;1.48;1.02;;;11.10;99.90;;;;;;4982111;28;20398;-79
2022/08/15 12:39:46;;;;;;;1.42;1.20;;;11.10;99.90;;;;;;4991507;28;20377;-80
2022/08/15 12:42:21;;;;;;;2.22;1.30;;;11.10;99.90;;;;;;4991486;28;20385;-76
2022/08/15 12:44:51;;;;;;;1.88;1.50;;;11.10;99.90;;;;;;4991279;28;20380;-73
2022/08/15 12:47:20;;;;;;;1.73;1.47;;;11.00;99.90;;;;;;4991286;28;20490;-76
2022/08/15 12:49:49;;;;;;;2.55;1.73;;;11.00;99.90;;;;;;4988300;28;20385;-79
2022/08/15 12:52:19;;;;;;;2.67;1.90;;;11.00;99.90;;;;;;4973551;28;20445;-79
2022/08/15 12:54:48;;;;;;;3.95;2.15;;;11.00;99.90;;;;;;4991332;28;20388;-77
2022/08/15 12:57:15;;;;;;;3.40;1.92;;;11.00;99.90;;;;;;4990905;28;20991;-78
2022/08/15 12:59:43;;;;;;;2.28;1.80;;;11.00;99.90;;;;;;4988484;28;20408;-79
2022/08/15 13:02:11;;;;;;;2.28;1.88;;;11.00;99.90;;;;;;4990926;28;20389;-79
2022/08/15 13:04:44;;;;;;;2.95;2.00;;;10.90;99.90;;;;;;4990560;28;20424;-78
2022/08/15 13:07:13;;;;;;;3.00;2.40;;;10.90;99.90;;;;;;4991032;28;20456;-81
2022/08/15 13:09:42;;;;;;;4.82;2.15;;;10.90;99.90;;;;;;4990776;28;20494;-82
2022/08/15 13:12:10;;;;;;;3.20;2.20;;;10.80;99.90;;;;;;4986433;28;20394;-78
2022/08/15 13:14:37;;;;;;;4.15;2.20;;;10.80;99.90;;;;;;4982065;28;20380;-75
2022/08/15 13:17:05;;;;;;;3.08;2.42;;;10.80;99.90;;;;;;4990513;28;20389;-81
2022/08/15 13:23:34;;;;;;;4.32;3.10;;;10.80;99.90;;;;;;4990099;28;20399;-74
2022/08/15 13:25:12;;;;;;;5.63;3.70;;;10.70;99.90;;;;;;4990921;28;21026;-80
2022/08/15 13:27:40;;;;;;;4.33;3.70;;;10.70;99.90;;;;;;4977642;28;20519;-74
2022/08/15 13:30:14;;;;;;;6.57;3.70;;;10.70;99.90;;;;;;4990804;28;20388;-80
2022/08/15 13:32:42;;;;;;;6.18;3.30;;;10.60;99.90;;;;;;4990870;28;20381;-76
2022/08/15 13:35:13;;;;;;;4.20;3.30;;;10.60;99.90;;;;;;4990763;28;20420;-78
2022/08/15 13:37:40;;;;;;;4.30;3.15;;;10.50;99.90;;;;;;4990546;28;20891;-74
2022/08/15 13:40:10;;;;;;;4.22;3.20;;;10.40;99.90;;;;;;4990998;28;20384;-75